createdAt,value
2023-05-10T00:00:03.366Z,0.00
2023-05-10T00:01:03.292Z,0.00
2023-05-10T00:02:03.333Z,0.00
2023-05-10T00:03:03.332Z,0.00
2023-05-10T00:04:04.265Z,0.00
2023-05-10T00:05:03.243Z,0.00
2023-05-10T00:06:03.316Z,0.00
2023-05-10T00:07:03.247Z,0.00
2023-05-10T00:08:03.228Z,0.00
2023-05-10T00:09:03.230Z,0.00
2023-05-10T00:10:03.226Z,0.00
2023-05-10T00:11:03.200Z,0.00
2023-05-10T00:12:03.184Z,0.00
2023-05-10T00:13:03.176Z,0.00
2023-05-10T00:14:03.174Z,0.00
2023-05-10T00:15:03.183Z,0.00
2023-05-10T00:16:03.189Z,0.00
2023-05-10T00:17:03.117Z,0.00
2023-05-10T00:18:03.154Z,0.00
2023-05-10T00:19:03.128Z,0.00
2023-05-10T00:20:03.081Z,0.00
2023-05-10T00:21:03.081Z,0.00
2023-05-10T00:22:03.059Z,0.00
2023-05-10T00:23:03.040Z,0.00
2023-05-10T00:24:03.067Z,0.00
2023-05-10T00:25:03.103Z,0.00
2023-05-10T00:26:03.032Z,0.00
2023-05-10T00:27:03.038Z,0.00
2023-05-10T00:28:03.015Z,0.00
2023-05-10T00:29:03.018Z,0.00
2023-05-10T00:30:03.002Z,0.00
2023-05-10T00:31:02.962Z,0.00
2023-05-10T00:32:03.020Z,0.00
2023-05-10T00:33:04.106Z,0.00
2023-05-10T00:34:02.948Z,0.00
2023-05-10T00:35:02.916Z,0.00
2023-05-10T00:36:02.917Z,0.00
2023-05-10T00:37:03.031Z,0.00
2023-05-10T00:38:02.946Z,0.00
2023-05-10T00:39:02.916Z,0.00
2023-05-10T00:40:03.836Z,0.00
2023-05-10T00:41:02.851Z,0.00
2023-05-10T00:42:02.838Z,0.00
2023-05-10T00:43:02.840Z,0.00
2023-05-10T00:44:02.943Z,0.00
2023-05-10T00:45:03.769Z,0.00
2023-05-10T00:46:02.845Z,0.00
2023-05-10T00:47:02.775Z,0.00
2023-05-10T00:48:02.799Z,0.00
2023-05-10T00:49:02.767Z,0.00
2023-05-10T00:50:02.857Z,0.00
2023-05-10T00:51:02.759Z,0.00
2023-05-10T00:52:02.754Z,0.00
2023-05-10T00:53:02.746Z,0.00
2023-05-10T00:54:02.753Z,0.00
2023-05-10T00:55:02.725Z,0.00
2023-05-10T00:56:03.682Z,0.00
2023-05-10T00:57:02.690Z,0.00
2023-05-10T00:58:02.679Z,0.00
2023-05-10T00:59:02.678Z,0.00
2023-05-10T01:00:02.660Z,0.00
2023-05-10T01:01:02.712Z,0.00
2023-05-10T01:02:02.653Z,0.00
2023-05-10T01:03:02.752Z,0.00
2023-05-10T01:04:02.636Z,0.00
2023-05-10T01:05:02.640Z,0.00
2023-05-10T01:06:02.582Z,0.00
2023-05-10T01:07:02.616Z,0.00
2023-05-10T01:08:02.724Z,0.00
2023-05-10T01:09:04.047Z,0.00
2023-05-10T01:10:02.536Z,0.00
2023-05-10T01:11:02.521Z,0.00
2023-05-10T01:12:02.548Z,0.00
2023-05-10T01:13:02.556Z,0.00
2023-05-10T01:14:02.488Z,0.00
2023-05-10T01:15:02.567Z,0.00
2023-05-10T01:16:02.538Z,0.00
2023-05-10T01:17:02.458Z,0.00
2023-05-10T01:18:02.494Z,0.00
2023-05-10T01:19:02.457Z,0.00
2023-05-10T01:20:02.629Z,0.00
2023-05-10T01:21:02.457Z,0.00
2023-05-10T01:22:02.425Z,0.00
2023-05-10T01:23:02.394Z,0.00
2023-05-10T01:24:02.388Z,0.00
2023-05-10T01:25:02.354Z,0.00
2023-05-10T01:26:02.391Z,0.00
2023-05-10T01:27:02.346Z,0.00
2023-05-10T01:28:02.363Z,0.00
2023-05-10T01:29:02.334Z,0.00
2023-05-10T01:30:14.626Z,0.00
2023-05-10T01:31:03.341Z,0.00
2023-05-10T01:32:02.310Z,0.00
2023-05-10T01:33:02.387Z,0.00
2023-05-10T01:34:03.756Z,0.00
2023-05-10T01:35:04.284Z,0.00
2023-05-10T01:36:04.205Z,0.00
2023-05-10T01:37:02.268Z,0.00
2023-05-10T01:38:02.241Z,0.00
2023-05-10T01:39:02.206Z,0.00
2023-05-10T01:40:02.251Z,0.00
2023-05-10T01:41:02.258Z,0.00
2023-05-10T01:42:02.367Z,0.00
2023-05-10T01:43:02.176Z,0.00
2023-05-10T01:44:02.251Z,0.00
2023-05-10T01:45:02.173Z,0.00
2023-05-10T01:46:02.201Z,0.00
2023-05-10T01:47:02.353Z,0.00
2023-05-10T01:48:02.201Z,0.00
2023-05-10T01:49:02.100Z,0.00
2023-05-10T01:50:02.114Z,0.00
2023-05-10T01:51:02.110Z,0.00
2023-05-10T01:52:02.058Z,0.00
2023-05-10T01:53:02.096Z,0.00
2023-05-10T01:54:02.094Z,0.00
2023-05-10T01:55:03.082Z,0.00
2023-05-10T01:56:02.989Z,0.00
2023-05-10T01:57:02.014Z,0.00
2023-05-10T01:58:02.075Z,0.00
2023-05-10T01:59:02.053Z,0.00
2023-05-10T02:00:02.011Z,0.00
2023-05-10T02:01:02.005Z,0.00
2023-05-10T02:02:02.928Z,0.00
2023-05-10T02:03:02.058Z,0.00
2023-05-10T02:04:01.975Z,0.00
2023-05-10T02:05:01.993Z,0.00
2023-05-10T02:06:03.437Z,0.00
2023-05-10T02:07:03.414Z,0.00
2023-05-10T02:08:01.998Z,0.00
2023-05-10T02:09:02.975Z,0.00
2023-05-10T02:10:01.883Z,0.00
2023-05-10T02:11:02.701Z,0.00
2023-05-10T02:12:02.762Z,0.00
2023-05-10T02:13:01.913Z,0.00
2023-05-10T02:14:01.958Z,0.00
2023-05-10T02:15:03.287Z,0.00
2023-05-10T02:16:02.793Z,0.00
2023-05-10T02:17:01.856Z,0.00
2023-05-10T02:18:03.319Z,0.00
2023-05-10T02:19:01.797Z,0.00
2023-05-10T02:20:02.083Z,0.00
2023-05-10T02:21:02.628Z,0.00
2023-05-10T02:22:01.819Z,0.00
2023-05-10T02:23:01.901Z,0.00
2023-05-10T02:24:01.960Z,0.00
2023-05-10T02:25:03.678Z,0.00
2023-05-10T02:26:03.156Z,0.00
2023-05-10T02:27:02.082Z,0.00
2023-05-10T02:28:01.861Z,0.00
2023-05-10T02:29:01.997Z,0.00
2023-05-10T02:30:01.765Z,0.00
2023-05-10T02:31:01.648Z,0.00
2023-05-10T02:32:01.705Z,0.00
2023-05-10T02:33:01.665Z,0.00
2023-05-10T02:34:02.477Z,0.00
2023-05-10T02:35:03.572Z,0.00
2023-05-10T02:36:03.057Z,0.00
2023-05-10T02:37:02.578Z,0.00
2023-05-10T02:38:01.573Z,0.00
2023-05-10T02:39:01.574Z,0.00
2023-05-10T02:40:01.554Z,0.00
2023-05-10T02:41:01.534Z,0.00
2023-05-10T02:42:01.593Z,0.00
2023-05-10T02:43:02.999Z,0.00
2023-05-10T02:44:01.514Z,0.00
2023-05-10T02:45:01.610Z,0.00
2023-05-10T02:46:01.925Z,0.00
2023-05-10T02:47:01.485Z,0.00
2023-05-10T02:48:01.467Z,0.00
2023-05-10T02:49:01.484Z,0.00
2023-05-10T02:50:02.432Z,0.00
2023-05-10T02:51:01.426Z,0.00
2023-05-10T02:52:01.456Z,0.00
2023-05-10T02:53:01.429Z,0.00
2023-05-10T02:54:01.404Z,0.00
2023-05-10T02:55:01.882Z,0.00
2023-05-10T02:56:01.632Z,0.00
2023-05-10T02:57:02.257Z,0.00
2023-05-10T02:58:01.363Z,0.00
2023-05-10T02:59:01.362Z,0.00
2023-05-10T03:00:01.349Z,0.00
2023-05-10T03:01:01.359Z,0.00
2023-05-10T03:02:01.312Z,0.00
2023-05-10T03:03:01.962Z,0.00
2023-05-10T03:04:01.298Z,0.00
2023-05-10T03:05:01.424Z,0.00
2023-05-10T03:06:02.720Z,0.00
2023-05-10T03:07:01.257Z,0.00
2023-05-10T03:08:02.077Z,0.00
2023-05-10T03:09:01.280Z,0.00
2023-05-10T03:10:01.279Z,0.00
2023-05-10T03:11:01.220Z,0.00
2023-05-10T03:12:01.192Z,0.00
2023-05-10T03:13:02.829Z,0.00
2023-05-10T03:14:02.643Z,0.00
2023-05-10T03:15:02.149Z,0.00
2023-05-10T03:16:02.670Z,0.00
2023-05-10T03:17:01.270Z,0.00
2023-05-10T03:18:01.209Z,0.00
2023-05-10T03:19:01.162Z,0.00
2023-05-10T03:20:02.568Z,0.00
2023-05-10T03:21:01.118Z,0.00
2023-05-10T03:22:02.540Z,0.00
2023-05-10T03:23:01.088Z,0.00
2023-05-10T03:24:01.129Z,0.00
2023-05-10T03:25:01.914Z,0.00
2023-05-10T03:26:02.133Z,0.00
2023-05-10T03:27:01.362Z,0.00
2023-05-10T03:28:01.020Z,0.00
2023-05-10T03:29:01.010Z,0.00
2023-05-10T03:30:01.966Z,0.00
2023-05-10T03:31:01.026Z,4.00
2023-05-10T03:32:00.985Z,4.00
2023-05-10T03:33:01.865Z,4.00
2023-05-10T03:34:00.963Z,4.00
2023-05-10T03:35:01.958Z,4.00
2023-05-10T03:36:01.895Z,4.00
2023-05-10T03:37:01.906Z,4.00
2023-05-10T03:38:01.204Z,8.00
2023-05-10T03:39:01.901Z,4.00
2023-05-10T03:40:02.348Z,8.00
2023-05-10T03:41:01.370Z,8.00
2023-05-10T03:42:01.681Z,8.00
2023-05-10T03:43:00.928Z,4.00
2023-05-10T03:44:02.367Z,12.00
2023-05-10T03:45:00.982Z,8.00
2023-05-10T03:46:00.918Z,8.00
2023-05-10T03:47:01.419Z,12.00
2023-05-10T03:48:02.353Z,16.00
2023-05-10T03:49:00.810Z,20.00
2023-05-10T03:50:00.788Z,20.00
2023-05-10T03:51:01.597Z,20.00
2023-05-10T03:52:00.758Z,16.00
2023-05-10T03:53:00.741Z,16.00
2023-05-10T03:54:02.702Z,12.00
2023-05-10T03:55:02.690Z,16.00
2023-05-10T03:56:02.709Z,16.00
2023-05-10T03:57:00.754Z,24.00
2023-05-10T03:58:00.739Z,24.00
2023-05-10T03:59:00.703Z,32.00
2023-05-10T04:00:00.662Z,40.00
2023-05-10T04:01:00.663Z,32.00
2023-05-10T04:02:00.689Z,40.00
2023-05-10T04:03:00.733Z,36.00
2023-05-10T04:04:00.744Z,32.00
2023-05-10T04:05:01.565Z,40.00
2023-05-10T04:06:00.668Z,44.00
2023-05-10T04:07:02.063Z,44.00
2023-05-10T04:08:00.578Z,60.00
2023-05-10T04:09:00.598Z,108.00
2023-05-10T04:10:02.033Z,96.00
2023-05-10T04:11:00.534Z,96.00
2023-05-10T04:12:00.533Z,88.00
2023-05-10T04:13:00.588Z,84.00
2023-05-10T04:14:00.729Z,112.00
2023-05-10T04:15:00.603Z,104.00
2023-05-10T04:16:01.519Z,100.00
2023-05-10T04:17:00.911Z,128.00
2023-05-10T04:18:00.660Z,120.00
2023-05-10T04:19:00.507Z,124.00
2023-05-10T04:20:02.435Z,104.00
2023-05-10T04:21:00.641Z,120.00
2023-05-10T04:22:00.450Z,124.00
2023-05-10T04:23:00.553Z,128.00
2023-05-10T04:24:00.651Z,112.00
2023-05-10T04:25:00.790Z,116.00
2023-05-10T04:26:00.460Z,156.00
2023-05-10T04:27:01.269Z,176.00
2023-05-10T04:28:00.700Z,188.00
2023-05-10T04:29:00.872Z,208.00
2023-05-10T04:30:00.372Z,228.00
2023-05-10T04:31:00.588Z,216.00
2023-05-10T04:32:01.756Z,172.00
2023-05-10T04:33:00.338Z,156.00
2023-05-10T04:34:00.517Z,188.00
2023-05-10T04:35:01.107Z,224.00
2023-05-10T04:36:00.298Z,256.00
2023-05-10T04:37:00.285Z,200.00
2023-05-10T04:38:00.244Z,132.00
2023-05-10T04:39:01.703Z,148.00
2023-05-10T04:40:00.225Z,120.00
2023-05-10T04:41:01.033Z,112.00
2023-05-10T04:42:00.238Z,108.00
2023-05-10T04:43:00.216Z,108.00
2023-05-10T04:44:00.197Z,108.00
2023-05-10T04:45:00.308Z,136.00
2023-05-10T04:46:00.354Z,212.00
2023-05-10T04:47:00.182Z,364.00
2023-05-10T04:48:00.649Z,360.00
2023-05-10T04:49:00.148Z,452.00
2023-05-10T04:50:00.254Z,268.00
2023-05-10T04:51:00.126Z,312.00
2023-05-10T04:52:00.208Z,376.00
2023-05-10T04:53:00.151Z,436.00
2023-05-10T04:54:06.190Z,352.00
2023-05-10T04:55:01.260Z,272.00
2023-05-10T04:56:01.569Z,488.00
2023-05-10T04:57:01.516Z,636.00
2023-05-10T04:58:00.125Z,400.00
2023-05-10T04:59:00.012Z,408.00
2023-05-10T04:59:59.985Z,440.00
2023-05-10T05:00:59.979Z,472.00
2023-05-10T05:02:00.085Z,452.00
2023-05-10T05:03:00.143Z,380.00
2023-05-10T05:04:00.053Z,264.00
2023-05-10T05:04:59.960Z,360.00
2023-05-10T05:06:01.417Z,332.00
2023-05-10T05:06:59.989Z,396.00
2023-05-10T05:07:59.954Z,428.00
2023-05-10T05:08:59.935Z,316.00
2023-05-10T05:09:59.900Z,332.00
2023-05-10T05:10:59.899Z,328.00
2023-05-10T05:12:01.337Z,364.00
2023-05-10T05:12:59.877Z,348.00
2023-05-10T05:13:59.844Z,372.00
2023-05-10T05:15:00.876Z,368.00
2023-05-10T05:15:59.973Z,308.00
2023-05-10T05:16:59.915Z,376.00
2023-05-10T05:17:59.838Z,392.00
2023-05-10T05:18:59.809Z,432.00
2023-05-10T05:19:59.880Z,388.00
2023-05-10T05:20:59.760Z,500.00
2023-05-10T05:21:59.797Z,524.00
2023-05-10T05:22:59.736Z,708.00
2023-05-10T05:23:59.711Z,704.00
2023-05-10T05:24:59.734Z,612.00
2023-05-10T05:26:00.649Z,680.00
2023-05-10T05:26:59.751Z,1024.00
2023-05-10T05:27:59.677Z,1004.00
2023-05-10T05:28:59.737Z,660.00
2023-05-10T05:29:59.696Z,576.00
2023-05-10T05:30:59.720Z,488.00
2023-05-10T05:31:59.697Z,652.00
2023-05-10T05:32:59.662Z,888.00
2023-05-10T05:33:59.620Z,1148.00
2023-05-10T05:35:00.563Z,652.00
2023-05-10T05:35:59.588Z,576.00
2023-05-10T05:36:59.602Z,584.00
2023-05-10T05:37:59.615Z,528.00
2023-05-10T05:38:59.577Z,536.00
2023-05-10T05:39:59.802Z,552.00
2023-05-10T05:40:59.546Z,448.00
2023-05-10T05:41:59.530Z,560.00
2023-05-10T05:43:00.541Z,524.00
2023-05-10T05:43:59.492Z,588.00
2023-05-10T05:44:59.492Z,496.00
2023-05-10T05:45:59.512Z,384.00
2023-05-10T05:46:59.502Z,476.00
2023-05-10T05:48:00.388Z,408.00
2023-05-10T05:48:59.453Z,472.00
2023-05-10T05:49:59.450Z,424.00
2023-05-10T05:50:59.426Z,576.00
2023-05-10T05:51:59.409Z,616.00
2023-05-10T05:52:59.415Z,700.00
2023-05-10T05:53:59.382Z,624.00
2023-05-10T05:54:59.438Z,764.00
2023-05-10T05:56:00.385Z,596.00
2023-05-10T05:57:01.184Z,728.00
2023-05-10T05:57:59.427Z,784.00
2023-05-10T05:58:59.357Z,916.00
2023-05-10T05:59:59.382Z,636.00
2023-05-10T06:00:59.450Z,692.00
2023-05-10T06:01:59.372Z,544.00
2023-05-10T06:02:59.326Z,616.00
2023-05-10T06:03:59.361Z,708.00
2023-05-10T06:04:59.267Z,804.00
2023-05-10T06:06:00.197Z,612.00
2023-05-10T06:06:59.273Z,752.00
2023-05-10T06:07:59.242Z,832.00
2023-05-10T06:08:59.219Z,936.00
2023-05-10T06:09:59.291Z,852.00
2023-05-10T06:10:59.196Z,1032.00
2023-05-10T06:11:59.245Z,864.00
2023-05-10T06:12:59.328Z,420.00
2023-05-10T06:13:59.248Z,396.00
2023-05-10T06:14:59.166Z,544.00
2023-05-10T06:15:59.190Z,648.00
2023-05-10T06:16:59.164Z,440.00
2023-05-10T06:17:59.251Z,592.00
2023-05-10T06:18:59.432Z,644.00
2023-05-10T06:19:59.092Z,556.00
2023-05-10T06:20:59.127Z,560.00
2023-05-10T06:21:59.070Z,400.00
2023-05-10T06:22:59.068Z,628.00
2023-05-10T06:24:00.114Z,944.00
2023-05-10T06:24:59.058Z,512.00
2023-05-10T06:25:59.076Z,496.00
2023-05-10T06:26:59.032Z,444.00
2023-05-10T06:27:59.021Z,352.00
2023-05-10T06:28:59.913Z,392.00
2023-05-10T06:30:11.639Z,796.00
2023-05-10T06:30:59.993Z,856.00
2023-05-10T06:31:59.028Z,1172.00
2023-05-10T06:32:58.966Z,676.00
2023-05-10T06:33:58.933Z,596.00
2023-05-10T06:34:59.140Z,520.00
2023-05-10T06:35:58.916Z,808.00
2023-05-10T06:36:58.907Z,800.00
2023-05-10T06:37:58.898Z,1100.00
2023-05-10T06:38:59.758Z,1016.00
2023-05-10T06:39:58.868Z,1100.00
2023-05-10T06:40:58.856Z,1156.00
2023-05-10T06:41:58.897Z,1128.00
2023-05-10T06:42:58.865Z,1032.00
2023-05-10T06:43:59.088Z,1376.00
2023-05-10T06:44:58.889Z,1164.00
2023-05-10T06:45:59.810Z,1012.00
2023-05-10T06:46:58.893Z,1060.00
2023-05-10T06:47:58.846Z,1000.00
2023-05-10T06:48:58.791Z,892.00
2023-05-10T06:49:58.769Z,812.00
2023-05-10T06:50:58.777Z,976.00
2023-05-10T06:51:58.751Z,984.00
2023-05-10T06:52:58.722Z,908.00
2023-05-10T06:53:58.748Z,616.00
2023-05-10T06:54:58.702Z,668.00
2023-05-10T06:55:58.679Z,732.00
2023-05-10T06:56:58.711Z,1212.00
2023-05-10T06:57:58.661Z,1652.00
2023-05-10T06:58:58.667Z,1616.00
2023-05-10T06:59:59.458Z,1704.00
2023-05-10T07:00:59.611Z,1164.00
2023-05-10T07:01:58.694Z,624.00
2023-05-10T07:02:58.709Z,624.00
2023-05-10T07:03:58.616Z,676.00
2023-05-10T07:05:02.376Z,700.00
2023-05-10T07:05:59.543Z,632.00
2023-05-10T07:06:58.559Z,644.00
2023-05-10T07:07:58.557Z,648.00
2023-05-10T07:08:58.559Z,612.00
2023-05-10T07:09:58.674Z,612.00
2023-05-10T07:10:58.536Z,480.00
2023-05-10T07:11:58.514Z,500.00
2023-05-10T07:12:58.592Z,608.00
2023-05-10T07:13:58.491Z,536.00
2023-05-10T07:14:58.506Z,540.00
2023-05-10T07:15:58.523Z,580.00
2023-05-10T07:16:58.482Z,524.00
2023-05-10T07:17:58.671Z,488.00
2023-05-10T07:18:58.423Z,456.00
2023-05-10T07:19:58.430Z,348.00
2023-05-10T07:20:58.950Z,400.00
2023-05-10T07:21:58.409Z,484.00
2023-05-10T07:22:58.400Z,896.00
2023-05-10T07:23:58.427Z,1016.00
2023-05-10T07:24:58.374Z,1644.00
2023-05-10T07:25:58.477Z,1812.00
2023-05-10T07:26:58.331Z,1624.00
2023-05-10T07:27:58.349Z,1492.00
2023-05-10T07:28:58.311Z,1412.00
2023-05-10T07:29:58.360Z,1372.00
2023-05-10T07:30:58.304Z,1408.00
2023-05-10T07:31:59.047Z,1380.00
2023-05-10T07:32:58.319Z,1192.00
2023-05-10T07:33:58.298Z,1240.00
2023-05-10T07:34:58.306Z,1372.00
2023-05-10T07:35:59.245Z,1436.00
2023-05-10T07:36:58.236Z,2220.00
2023-05-10T07:37:58.229Z,2508.00
2023-05-10T07:38:58.225Z,3300.00
2023-05-10T07:39:58.211Z,3232.00
2023-05-10T07:40:59.249Z,3296.00
2023-05-10T07:41:58.155Z,3320.00
2023-05-10T07:42:58.158Z,3724.00
2023-05-10T07:43:58.622Z,3680.00
2023-05-10T07:44:58.179Z,3748.00
2023-05-10T07:45:58.184Z,3796.00
2023-05-10T07:46:58.166Z,3172.00
2023-05-10T07:47:59.160Z,2592.00
2023-05-10T07:48:58.098Z,2148.00
2023-05-10T07:49:58.096Z,1744.00
2023-05-10T07:50:58.099Z,1444.00
2023-05-10T07:51:58.067Z,1332.00
2023-05-10T07:52:58.074Z,1812.00
2023-05-10T07:53:58.182Z,2520.00
2023-05-10T07:54:58.022Z,2856.00
2023-05-10T07:55:58.240Z,3320.00
2023-05-10T07:56:58.078Z,3140.00
2023-05-10T07:57:58.935Z,2176.00
2023-05-10T07:58:57.987Z,3244.00
2023-05-10T07:59:57.981Z,3620.00
2023-05-10T08:00:57.970Z,3968.00
2023-05-10T08:01:58.015Z,4224.00
2023-05-10T08:02:58.045Z,4180.00
2023-05-10T08:03:58.004Z,3748.00
2023-05-10T08:04:58.945Z,3524.00
2023-05-10T08:05:57.914Z,3148.00
2023-05-10T08:06:57.920Z,3556.00
2023-05-10T08:07:57.882Z,3496.00
2023-05-10T08:08:57.859Z,3180.00
2023-05-10T08:09:58.893Z,3124.00
2023-05-10T08:10:57.832Z,2960.00
2023-05-10T08:11:57.841Z,2840.00
2023-05-10T08:12:57.869Z,2920.00
2023-05-10T08:13:57.854Z,3016.00
2023-05-10T08:14:58.038Z,2432.00
2023-05-10T08:15:57.893Z,2712.00
2023-05-10T08:16:58.825Z,3384.00
2023-05-10T08:17:57.896Z,3472.00
2023-05-10T08:18:57.867Z,3468.00
2023-05-10T08:19:57.875Z,3876.00
2023-05-10T08:20:57.772Z,4148.00
2023-05-10T08:21:57.775Z,3908.00
2023-05-10T08:22:57.724Z,3616.00
2023-05-10T08:23:57.701Z,3752.00
2023-05-10T08:24:57.712Z,3668.00
2023-05-10T08:25:57.691Z,3148.00
2023-05-10T08:26:57.704Z,3348.00
2023-05-10T08:27:57.646Z,3624.00
2023-05-10T08:28:57.640Z,4072.00
2023-05-10T08:29:57.693Z,4644.00
2023-05-10T08:30:57.650Z,5036.00
2023-05-10T08:31:57.611Z,4180.00
2023-05-10T08:32:57.754Z,3884.00
2023-05-10T08:33:57.600Z,4588.00
2023-05-10T08:34:57.593Z,4868.00
2023-05-10T08:35:57.574Z,5080.00
2023-05-10T08:36:57.560Z,4840.00
2023-05-10T08:37:57.555Z,5104.00
2023-05-10T08:38:57.943Z,5140.00
2023-05-10T08:39:57.629Z,4996.00
2023-05-10T08:40:57.681Z,4472.00
2023-05-10T08:41:57.517Z,3600.00
2023-05-10T08:42:57.491Z,3064.00
2023-05-10T08:43:57.482Z,2624.00
2023-05-10T08:44:57.644Z,2772.00
2023-05-10T08:45:57.536Z,2584.00
2023-05-10T08:46:57.492Z,2304.00
2023-05-10T08:47:58.141Z,2388.00
2023-05-10T08:48:57.427Z,2336.00
2023-05-10T08:49:58.900Z,2960.00
2023-05-10T08:50:57.402Z,3824.00
2023-05-10T08:51:57.413Z,4192.00
2023-05-10T08:52:58.237Z,4208.00
2023-05-10T08:53:57.401Z,4272.00
2023-05-10T08:54:57.378Z,4348.00
2023-05-10T08:55:57.348Z,4140.00
2023-05-10T08:56:57.336Z,3940.00
2023-05-10T08:57:58.151Z,3956.00
2023-05-10T08:58:58.168Z,3580.00
2023-05-10T08:59:57.294Z,3220.00
2023-05-10T09:00:57.358Z,3100.00
2023-05-10T09:01:57.282Z,2868.00
2023-05-10T09:02:57.454Z,2896.00
2023-05-10T09:03:57.342Z,2860.00
2023-05-10T09:04:57.360Z,2828.00
2023-05-10T09:05:57.280Z,2912.00
2023-05-10T09:06:58.180Z,3000.00
2023-05-10T09:07:57.223Z,2676.00
2023-05-10T09:08:57.199Z,2856.00
2023-05-10T09:09:57.913Z,3156.00
2023-05-10T09:10:57.177Z,3448.00
2023-05-10T09:11:57.195Z,4028.00
2023-05-10T09:12:59.245Z,3856.00
2023-05-10T09:13:57.152Z,4160.00
2023-05-10T09:14:57.141Z,4452.00
2023-05-10T09:16:00.345Z,4628.00
2023-05-10T09:16:58.174Z,3800.00
2023-05-10T09:17:57.135Z,3320.00
2023-05-10T09:18:57.208Z,3824.00
2023-05-10T09:19:57.104Z,3716.00
2023-05-10T09:20:57.121Z,3468.00
2023-05-10T09:21:57.061Z,3448.00
2023-05-10T09:22:57.996Z,3356.00
2023-05-10T09:23:57.093Z,3416.00
2023-05-10T09:24:57.020Z,3380.00
2023-05-10T09:25:57.067Z,3716.00
2023-05-10T09:26:56.996Z,4368.00
2023-05-10T09:27:56.997Z,5216.00
2023-05-10T09:28:58.465Z,5784.00
2023-05-10T09:29:56.991Z,6296.00
2023-05-10T09:30:57.019Z,5384.00
2023-05-10T09:31:57.004Z,4576.00
2023-05-10T09:32:57.029Z,4780.00
2023-05-10T09:33:56.939Z,5500.00
2023-05-10T09:34:56.913Z,4384.00
2023-05-10T09:35:56.904Z,3768.00
2023-05-10T09:36:56.960Z,2572.00
2023-05-10T09:37:56.895Z,2004.00
2023-05-10T09:38:56.886Z,2208.00
2023-05-10T09:39:56.881Z,2668.00
2023-05-10T09:40:57.148Z,2472.00
2023-05-10T09:41:56.840Z,2420.00
2023-05-10T09:42:57.815Z,2420.00
2023-05-10T09:43:56.806Z,2300.00
2023-05-10T09:44:56.798Z,2208.00
2023-05-10T09:45:56.797Z,2192.00
2023-05-10T09:46:56.783Z,2484.00
2023-05-10T09:47:56.861Z,3360.00
2023-05-10T09:48:56.794Z,3816.00
2023-05-10T09:49:56.751Z,3632.00
2023-05-10T09:50:56.728Z,2964.00
2023-05-10T09:51:56.722Z,4108.00
2023-05-10T09:52:56.893Z,4568.00
2023-05-10T09:53:56.693Z,3228.00
2023-05-10T09:54:56.717Z,3596.00
2023-05-10T09:55:56.700Z,4120.00
2023-05-10T09:56:56.651Z,3528.00
2023-05-10T09:57:56.698Z,2208.00
2023-05-10T09:58:56.639Z,2172.00
2023-05-10T09:59:57.426Z,2168.00
2023-05-10T10:00:56.620Z,2848.00
2023-05-10T10:01:56.683Z,3400.00
2023-05-10T10:02:56.694Z,2708.00
2023-05-10T10:03:57.316Z,3204.00
2023-05-10T10:04:58.107Z,4588.00
2023-05-10T10:05:56.569Z,4776.00
2023-05-10T10:06:57.036Z,5004.00
2023-05-10T10:07:56.560Z,4264.00
2023-05-10T10:08:56.809Z,4144.00
2023-05-10T10:09:57.608Z,3764.00
2023-05-10T10:10:56.550Z,3448.00
2023-05-10T10:11:56.499Z,2720.00
2023-05-10T10:12:56.489Z,2684.00
2023-05-10T10:13:56.498Z,2000.00
2023-05-10T10:14:56.524Z,1832.00
2023-05-10T10:15:56.589Z,2360.00
2023-05-10T10:17:07.744Z,2504.00
2023-05-10T10:17:57.520Z,2412.00
2023-05-10T10:18:56.654Z,2628.00
2023-05-10T10:19:56.574Z,2192.00
2023-05-10T10:20:56.518Z,2120.00
2023-05-10T10:21:57.458Z,2472.00
2023-05-10T10:22:57.949Z,2672.00
2023-05-10T10:23:57.285Z,2848.00
2023-05-10T10:24:56.411Z,2492.00
2023-05-10T10:25:56.471Z,2840.00
2023-05-10T10:26:56.340Z,2892.00
2023-05-10T10:27:56.330Z,3424.00
2023-05-10T10:28:56.318Z,3692.00
2023-05-10T10:29:56.343Z,3236.00
2023-05-10T10:30:56.300Z,3032.00
2023-05-10T10:31:56.360Z,3092.00
2023-05-10T10:32:56.307Z,3496.00
2023-05-10T10:33:56.262Z,3788.00
2023-05-10T10:34:58.720Z,3296.00
2023-05-10T10:35:56.246Z,2964.00
2023-05-10T10:36:56.218Z,3852.00
2023-05-10T10:37:56.216Z,3740.00
2023-05-10T10:38:57.063Z,3464.00
2023-05-10T10:39:56.271Z,3888.00
2023-05-10T10:40:57.754Z,4184.00
2023-05-10T10:41:56.237Z,4804.00
2023-05-10T10:42:56.539Z,4360.00
2023-05-10T10:43:57.662Z,3284.00
2023-05-10T10:44:56.203Z,3612.00
2023-05-10T10:45:56.206Z,3312.00
2023-05-10T10:46:56.191Z,2692.00
2023-05-10T10:47:56.242Z,2556.00
2023-05-10T10:48:56.132Z,2248.00
2023-05-10T10:49:56.950Z,1588.00
2023-05-10T10:50:56.228Z,1336.00
2023-05-10T10:51:56.165Z,1260.00
2023-05-10T10:52:56.148Z,956.00
2023-05-10T10:53:56.109Z,936.00
2023-05-10T10:54:56.113Z,1076.00
2023-05-10T10:55:56.906Z,1328.00
2023-05-10T10:56:57.465Z,1692.00
2023-05-10T10:57:56.035Z,1620.00
2023-05-10T10:58:56.185Z,1636.00
2023-05-10T10:59:57.203Z,1864.00
2023-05-10T11:00:55.980Z,1480.00
2023-05-10T11:01:56.375Z,1676.00
2023-05-10T11:02:56.088Z,1876.00
2023-05-10T11:03:57.446Z,1624.00
2023-05-10T11:04:56.573Z,1692.00
2023-05-10T11:05:55.911Z,1604.00
2023-05-10T11:06:56.424Z,1440.00
2023-05-10T11:07:56.095Z,1364.00
2023-05-10T11:08:55.869Z,2520.00
2023-05-10T11:09:56.016Z,3228.00
2023-05-10T11:10:56.599Z,3056.00
2023-05-10T11:11:55.890Z,3872.00
2023-05-10T11:12:56.424Z,4648.00
2023-05-10T11:13:55.869Z,4468.00
2023-05-10T11:14:55.820Z,4072.00
2023-05-10T11:15:55.802Z,5020.00
2023-05-10T11:16:57.326Z,5392.00
2023-05-10T11:17:55.783Z,5944.00
2023-05-10T11:18:56.735Z,6404.00
2023-05-10T11:19:55.790Z,7028.00
2023-05-10T11:20:55.772Z,6636.00
2023-05-10T11:21:57.252Z,4700.00
2023-05-10T11:22:55.774Z,4452.00
2023-05-10T11:23:57.187Z,5364.00
2023-05-10T11:24:55.699Z,5676.00
2023-05-10T11:25:55.704Z,4960.00
2023-05-10T11:26:55.803Z,5784.00
2023-05-10T11:27:55.668Z,5748.00
2023-05-10T11:28:55.657Z,5252.00
2023-05-10T11:29:55.667Z,3556.00
2023-05-10T11:30:55.649Z,2728.00
2023-05-10T11:31:55.621Z,5228.00
2023-05-10T11:32:55.697Z,5060.00
2023-05-10T11:33:55.631Z,4912.00
2023-05-10T11:34:55.625Z,3916.00
2023-05-10T11:35:55.586Z,2920.00
2023-05-10T11:36:55.581Z,1832.00
2023-05-10T11:37:55.725Z,2796.00
2023-05-10T11:38:55.556Z,5448.00
2023-05-10T11:39:55.542Z,5356.00
2023-05-10T11:40:55.527Z,3564.00
2023-05-10T11:41:55.590Z,2936.00
2023-05-10T11:42:56.471Z,3624.00
2023-05-10T11:43:55.537Z,3388.00
2023-05-10T11:44:55.694Z,2060.00
2023-05-10T11:45:55.559Z,1352.00
2023-05-10T11:46:55.456Z,1480.00
2023-05-10T11:47:55.458Z,1828.00
2023-05-10T11:48:55.456Z,2912.00
2023-05-10T11:49:55.463Z,2776.00
2023-05-10T11:50:55.409Z,2860.00
2023-05-10T11:51:55.479Z,2960.00
2023-05-10T11:52:56.922Z,2920.00
2023-05-10T11:53:56.848Z,2988.00
2023-05-10T11:54:55.373Z,3248.00
2023-05-10T11:55:55.359Z,3484.00
2023-05-10T11:56:55.389Z,4860.00
2023-05-10T11:57:55.378Z,5324.00
2023-05-10T11:58:55.330Z,5592.00
2023-05-10T11:59:56.251Z,5832.00
2023-05-10T12:00:55.297Z,5456.00
2023-05-10T12:01:55.271Z,5460.00
2023-05-10T12:02:55.563Z,5296.00
2023-05-10T12:03:55.411Z,5204.00
2023-05-10T12:04:55.250Z,4200.00
2023-05-10T12:05:56.218Z,4392.00
2023-05-10T12:06:56.068Z,4576.00
2023-05-10T12:07:55.224Z,4144.00
2023-05-10T12:08:55.260Z,3808.00
2023-05-10T12:09:55.181Z,3840.00
2023-05-10T12:10:55.205Z,3904.00
2023-05-10T12:11:56.150Z,4228.00
2023-05-10T12:12:56.175Z,4660.00
2023-05-10T12:13:55.198Z,5512.00
2023-05-10T12:14:55.150Z,6148.00
2023-05-10T12:15:55.148Z,7084.00
2023-05-10T12:16:56.111Z,7248.00
2023-05-10T12:17:55.138Z,6780.00
2023-05-10T12:18:55.212Z,6016.00
2023-05-10T12:19:55.081Z,5952.00
2023-05-10T12:20:55.102Z,6184.00
2023-05-10T12:21:55.197Z,6216.00
2023-05-10T12:22:55.166Z,5556.00
2023-05-10T12:23:56.149Z,5948.00
2023-05-10T12:24:55.074Z,6316.00
2023-05-10T12:25:55.105Z,6536.00
2023-05-10T12:26:55.009Z,6660.00
2023-05-10T12:27:55.038Z,6432.00
2023-05-10T12:28:55.052Z,6388.00
2023-05-10T12:29:55.032Z,6904.00
2023-05-10T12:30:55.889Z,7680.00
2023-05-10T12:31:55.046Z,7852.00
2023-05-10T12:32:54.986Z,6904.00